Time;durP1;ratioP1;P1;durP2;ratioP2;P2;SDS_P1;SDS_P2;PMS_P1;PMS_P2;Temp;Humidity;BMP_temperature;BMP_pressure;BME280_temperature;BME280_humidity;BME280_pressure;Samples;Min_cycle;Max_cycle;Signal;HPM_P1;HPM_P2
2021/07/21 00:00:52;;;;;;;13.62;7.60;;;;;;;28.46;38.90;99733.84;4482564;32;33644;-64
2021/07/21 00:03:20;;;;;;;11.48;6.65;;;;;;;28.48;38.80;99733.56;4483712;32;33975;-64
2021/07/21 00:05:49;;;;;;;10.23;6.78;;;;;;;28.46;38.82;99728.34;4483558;32;34087;-64
2021/07/21 00:08:16;;;;;;;12.75;7.30;;;;;;;28.45;38.92;99728.63;4483476;32;34967;-64
2021/07/21 00:10:46;;;;;;;16.12;7.35;;;;;;;28.45;38.95;99726.72;4483487;32;33395;-64
2021/07/21 00:13:32;;;;;;;;;;;;;;;28.45;39.02;99737.69;4483846;32;34109;-64
2021/07/21 00:20:58;;;;;;;11.38;7.43;;;;;;;28.44;38.83;99725.03;4483403;32;33314;-64
2021/07/21 00:23:26;;;;;;;9.63;6.80;;;;;;;28.44;38.91;99730.53;4483371;32;34072;-64
2021/07/21 00:25:54;;;;;;;11.23;6.90;;;;;;;28.43;38.96;99731.63;4483242;32;33973;-64
2021/07/21 00:28:21;;;;;;;13.25;7.28;;;;;;;28.44;38.96;99741.50;4483203;32;34551;-64
2021/07/21 00:30:49;;;;;;;10.80;6.97;;;;;;;28.43;38.98;99745.34;4483274;32;33526;-64
2021/07/21 00:33:18;;;;;;;12.63;8.02;;;;;;;28.43;39.03;99742.59;4483215;32;34719;-64
2021/07/21 00:35:46;;;;;;;9.15;7.20;;;;;;;28.43;39.13;99747.25;4484051;32;34142;-64
2021/07/21 00:38:14;;;;;;;11.60;7.18;;;;;;;28.44;39.12;99751.66;4485546;32;33982;-64
2021/07/21 00:40:42;;;;;;;12.57;6.90;;;;;;;28.43;39.13;99750.00;4485106;32;33534;-64
2021/07/21 00:43:09;;;;;;;9.73;7.50;;;;;;;28.43;39.20;99753.56;4485038;32;33513;-64
2021/07/21 00:45:37;;;;;;;10.88;7.20;;;;;;;28.45;39.21;99747.84;4484998;32;34100;-64
2021/07/21 00:48:05;;;;;;;9.30;7.20;;;;;;;28.45;39.16;99745.09;4485224;32;34786;-64
2021/07/21 00:50:33;;;;;;;10.60;7.20;;;;;;;28.44;38.98;99735.19;4485269;32;33688;-64
2021/07/21 00:53:01;;;;;;;12.07;7.10;;;;;;;28.44;39.22;99732.44;4485443;32;34745;-64
2021/07/21 00:55:29;;;;;;;12.57;6.95;;;;;;;28.42;39.47;99740.13;4483987;32;33972;-64
2021/07/21 00:57:57;;;;;;;11.60;7.37;;;;;;;28.43;39.52;99734.34;4485179;32;34611;-64
2021/07/21 01:00:25;;;;;;;11.30;6.60;;;;;;;28.43;39.53;99739.84;4485122;32;33581;-64
2021/07/21 01:02:53;;;;;;;9.98;7.50;;;;;;;28.42;39.37;99746.44;4485232;32;33931;-64
2021/07/21 01:05:29;;;;;;;11.52;7.37;;;;;;;28.42;39.33;99740.94;4485440;32;34002;-64
2021/07/21 01:07:57;;;;;;;13.20;7.55;;;;;;;28.43;39.42;99737.09;4485081;32;34384;-64
2021/07/21 01:10:26;;;;;;;11.73;7.43;;;;;;;28.42;39.57;99742.87;4483698;32;34488;-64
2021/07/21 01:13:12;;;;;;;10.30;7.57;;;;;;;28.42;39.49;99731.88;4471128;32;33908;-64
2021/07/21 01:15:39;;;;;;;11.70;6.93;;;;;;;28.41;39.42;99732.97;4484974;32;34845;-64
2021/07/21 01:18:21;;;;;;;14.40;6.87;;;;;;;28.42;39.48;99732.72;4484855;32;33943;-64
2021/07/21 01:21:07;;;;;;;12.98;6.80;;;;;;;28.42;39.53;99734.63;4471506;32;33459;-64
2021/07/21 01:23:47;;;;;;;11.55;6.47;;;;;;;28.40;39.71;99737.66;4483815;32;33798;-64
2021/07/21 01:26:30;;;;;;;8.98;6.55;;;;;;;28.41;39.86;99736.56;4485294;32;34769;-64
2021/07/21 01:28:58;;;;;;;10.25;7.32;;;;;;;28.40;39.85;99743.13;4472359;32;33564;-64
2021/07/21 01:31:33;;;;;;;11.25;7.60;;;;;;;28.40;39.79;99737.66;4483968;32;33707;-64
2021/07/21 01:34:01;;;;;;;13.10;7.40;;;;;;;28.41;39.78;99739.28;4471149;32;34698;-64
2021/07/21 01:36:33;;;;;;;9.43;6.95;;;;;;;28.41;39.89;99744.78;4483623;32;33950;-64
2021/07/21 01:39:03;;;;;;;12.82;7.95;;;;;;;28.39;39.88;99741.47;4483894;32;33952;-64
2021/07/21 01:41:35;;;;;;;11.10;6.97;;;;;;;28.40;39.81;99737.66;4483844;32;34244;-64
2021/07/21 01:44:06;;;;;;;11.43;6.75;;;;;;;28.41;39.81;99738.47;4484919;32;34653;-64
2021/07/21 01:46:36;;;;;;;10.32;6.85;;;;;;;28.40;39.89;99740.38;4470897;32;34015;-64
2021/07/21 01:49:04;;;;;;;12.10;7.00;;;;;;;28.40;39.67;99737.66;4483461;32;34042;-64
2021/07/21 01:51:33;;;;;;;11.32;7.35;;;;;;;28.41;39.74;99743.97;4483446;32;34063;-64
2021/07/21 01:54:03;;;;;;;11.65;7.78;;;;;;;28.41;39.67;99744.78;4471133;32;34056;-64
2021/07/21 01:56:32;;;;;;;9.07;6.95;;;;;;;28.42;39.75;99748.34;4470895;32;33986;-64
2021/07/21 01:58:59;;;;;;;13.95;7.62;;;;;;;28.42;39.67;99751.09;4470681;32;34173;-64
2021/07/21 02:01:28;;;;;;;11.00;6.70;;;;;;;28.41;39.76;99749.44;4470903;32;33652;-64
2021/07/21 02:03:57;;;;;;;10.00;6.57;;;;;;;28.40;39.80;99748.63;4483601;32;33973;-64
2021/07/21 02:06:25;;;;;;;11.32;6.53;;;;;;;28.40;39.87;99748.63;4484991;32;34817;-64
2021/07/21 02:08:54;;;;;;;11.07;7.15;;;;;;;28.39;39.71;99755.19;4470664;32;33556;-64
2021/07/21 02:11:24;;;;;;;8.95;7.22;;;;;;;28.40;39.78;99756.03;4470877;32;33677;-64
2021/07/21 02:13:54;;;;;;;12.13;6.50;;;;;;;28.41;39.62;99760.44;4483554;32;34168;-64
2021/07/21 02:16:22;;;;;;;9.98;6.95;;;;;;;28.41;39.67;99758.50;4471069;32;34316;-63
2021/07/21 02:18:55;;;;;;;11.50;7.35;;;;;;;28.40;39.77;99761.53;4483571;32;35050;-64
2021/07/21 02:21:26;;;;;;;11.82;6.82;;;;;;;28.39;39.52;99755.19;4483655;32;33359;-64
2021/07/21 02:23:54;;;;;;;10.23;7.20;;;;;;;28.39;39.86;99754.34;4483528;32;34684;-64
2021/07/21 02:26:24;;;;;;;8.82;6.97;;;;;;;28.39;39.74;99752.44;4484736;31;32603;-64
2021/07/21 02:28:53;;;;;;;10.40;7.35;;;;;;;28.40;39.76;99750.53;4483689;32;33477;-64
2021/07/21 02:31:25;;;;;;;10.35;6.90;;;;;;;28.40;39.64;99743.13;4483516;32;33633;-64
2021/07/21 02:34:02;;;;;;;10.20;7.03;;;;;;;28.39;39.79;99744.19;4483675;32;34060;-64
2021/07/21 02:36:31;;;;;;;11.20;7.10;;;;;;;28.40;39.65;99739.56;4484392;32;34279;-64
2021/07/21 02:39:00;;;;;;;13.60;7.03;;;;;;;28.39;39.74;99735.97;4484473;32;33983;-64
2021/07/21 02:41:28;;;;;;;12.18;6.93;;;;;;;28.38;39.63;99748.03;4484804;32;33542;-64
2021/07/21 02:43:56;;;;;;;8.88;6.78;;;;;;;28.39;39.60;99748.87;4484255;32;34064;-64
2021/07/21 02:46:24;;;;;;;10.05;6.50;;;;;;;28.39;39.60;99741.47;4481876;32;83067;-64
2021/07/21 02:48:52;;;;;;;10.70;7.93;;;;;;;28.39;39.68;99748.87;4484367;32;35066;-64
2021/07/21 02:51:28;;;;;;;10.82;7.70;;;;;;;28.40;39.55;99753.28;4484487;32;33586;-64
2021/07/21 02:54:02;;;;;;;12.75;6.95;;;;;;;28.39;39.53;99751.59;4484441;32;34837;-64
2021/07/21 02:56:31;;;;;;;9.93;6.97;;;;;;;28.40;39.50;99759.59;4483270;32;33949;-64
2021/07/21 02:59:05;;;;;;;11.45;7.10;;;;;;;28.41;39.57;99758.50;4482076;32;33886;-64
2021/07/21 03:01:34;;;;;;;14.48;6.97;;;;;;;28.39;39.52;99757.09;4484614;32;33524;-64
2021/07/21 03:04:02;;;;;;;11.27;7.07;;;;;;;28.40;39.51;99770.56;4470456;32;34120;-64
2021/07/21 03:06:30;;;;;;;12.00;6.97;;;;;;;28.39;39.58;99765.31;4470524;32;34861;-64
2021/07/21 03:08:58;;;;;;;10.40;7.07;;;;;;;28.38;39.53;99763.69;4484231;32;34594;-65
2021/07/21 03:11:26;;;;;;;10.70;6.93;;;;;;;28.40;39.58;99772.50;4483245;32;33409;-64
2021/07/21 03:13:54;;;;;;;10.82;7.72;;;;;;;28.39;39.54;99771.63;4483199;32;34718;-64
2021/07/21 03:16:28;;;;;;;10.60;7.20;;;;;;;28.38;39.59;99774.66;4483115;32;34291;-64
2021/07/21 03:18:59;;;;;;;10.00;7.47;;;;;;;28.41;39.61;99783.19;4470468;32;34096;-64
2021/07/21 03:21:28;;;;;;;12.85;6.57;;;;;;;28.39;39.60;99781.78;4484137;32;33552;-65
2021/07/21 03:23:56;;;;;;;12.45;7.12;;;;;;;28.38;39.69;99782.88;4470407;32;33017;-64
2021/07/21 03:26:32;;;;;;;10.95;6.93;;;;;;;28.38;39.58;99786.47;4483216;32;34103;-64
2021/07/21 03:29:01;;;;;;;12.30;7.10;;;;;;;28.36;39.55;99780.41;4470378;32;34084;-64
2021/07/21 03:31:28;;;;;;;15.07;7.57;;;;;;;28.36;39.59;99782.34;4482650;32;33591;-64
2021/07/21 03:34:06;;;;;;;14.23;7.67;;;;;;;28.37;39.68;99782.06;4484157;32;33934;-64
2021/07/21 03:36:40;;;;;;;12.57;6.97;;;;;;;28.36;39.55;99774.09;4484075;32;34337;-64
2021/07/21 03:39:10;;;;;;;9.70;7.18;;;;;;;28.36;39.62;99769.44;4484217;32;34831;-64
2021/07/21 03:41:37;;;;;;;14.23;7.47;;;;;;;28.35;39.48;99766.94;4482744;32;33517;-64
2021/07/21 03:44:07;;;;;;;11.70;7.07;;;;;;;28.36;39.59;99777.66;4469657;32;34341;-64
2021/07/21 03:46:36;;;;;;;13.35;7.12;;;;;;;28.35;39.58;99778.75;4482556;32;35515;-64
2021/07/21 03:49:04;;;;;;;10.00;6.87;;;;;;;28.35;39.61;99791.62;4482778;32;33866;-64
2021/07/21 03:51:34;;;;;;;13.15;7.57;;;;;;;28.36;39.65;99785.06;4482782;32;34303;-64
2021/07/21 03:54:07;;;;;;;10.27;7.35;;;;;;;28.36;39.58;99783.16;4482801;32;33826;-65
2021/07/21 03:56:36;;;;;;;9.48;6.70;;;;;;;28.35;39.59;99788.88;4482423;32;35038;-64
2021/07/21 03:59:05;;;;;;;13.48;7.35;;;;;;;28.35;39.66;99794.38;4482754;32;34071;-64
2021/07/21 04:01:34;;;;;;;;;;;;;;;28.35;39.71;99799.88;4484300;32;33419;-64
2021/07/21 04:04:03;;;;;;;12.48;7.05;;;;;;;28.45;39.44;99800.81;4482370;32;34910;-64
2021/07/21 04:06:31;;;;;;;13.32;6.95;;;;;;;28.37;39.61;99808.69;4482743;32;33960;-64
2021/07/21 04:09:05;;;;;;;11.73;6.78;;;;;;;28.35;39.58;99810.84;4469672;32;33607;-64
2021/07/21 04:11:33;;;;;;;11.05;7.10;;;;;;;28.35;39.58;99808.09;4485738;32;33485;-64
2021/07/21 04:14:03;;;;;;;10.68;6.97;;;;;;;28.34;39.60;99811.91;4485815;32;33900;-64
2021/07/21 04:16:34;;;;;;;10.23;7.20;;;;;;;28.32;39.55;99808.59;4484336;32;34903;-64
2021/07/21 04:19:03;;;;;;;10.93;7.07;;;;;;;28.32;39.69;99811.34;4471568;32;34678;-64
2021/07/21 04:21:30;;;;;;;11.88;7.65;;;;;;;28.31;39.75;99810.53;4484180;32;33457;-64
2021/07/21 04:24:05;;;;;;;11.02;7.40;;;;;;;28.32;39.57;99811.34;4471933;32;33358;-64
2021/07/21 04:26:32;;;;;;;9.98;6.87;;;;;;;28.32;39.66;99830.56;4471598;32;35106;-64
2021/07/21 04:29:03;;;;;;;10.10;7.12;;;;;;;28.31;39.65;99842.63;4485715;32;34794;-64
2021/07/21 04:31:32;;;;;;;9.82;7.32;;;;;;;28.30;39.67;99836.28;4471391;32;34838;-64
2021/07/21 04:34:00;;;;;;;14.10;6.80;;;;;;;28.30;39.64;99839.03;4484100;32;34803;-64
2021/07/21 04:36:28;;;;;;;11.32;7.87;;;;;;;28.30;39.63;99838.19;4471432;32;34019;-65
2021/07/21 04:38:57;;;;;;;10.57;7.20;;;;;;;28.30;39.76;99846.44;4484053;32;33552;-64
2021/07/21 04:41:28;;;;;;;13.88;7.07;;;;;;;28.29;39.65;99847.53;4483906;32;31968;-64
2021/07/21 04:43:56;;;;;;;13.50;6.87;;;;;;;28.30;39.63;99851.91;4484241;32;34803;-64
2021/07/21 04:46:24;;;;;;;10.88;7.10;;;;;;;28.29;39.60;99855.75;4485007;32;34780;-64
2021/07/21 04:48:52;;;;;;;14.15;7.40;;;;;;;28.29;39.63;99855.75;4484014;32;34694;-64
2021/07/21 04:51:20;;;;;;;13.32;7.60;;;;;;;28.29;39.84;99864.81;4484007;32;33441;-64
2021/07/21 04:53:47;;;;;;;13.90;7.75;;;;;;;28.29;39.59;99856.59;4471092;32;33609;-64
2021/07/21 04:56:16;;;;;;;10.07;6.37;;;;;;;28.29;39.51;99866.72;4484256;32;34766;-65
2021/07/21 04:58:44;;;;;;;16.15;7.53;;;;;;;28.29;39.66;99870.31;4484886;32;33923;-64
2021/07/21 05:01:13;;;;;;;12.40;7.30;;;;;;;28.29;39.57;99883.19;4485496;32;33164;-64
2021/07/21 05:03:41;;;;;;;15.30;8.03;;;;;;;28.28;39.58;99870.56;4484124;32;34671;-64
2021/07/21 05:06:10;;;;;;;11.05;7.32;;;;;;;28.29;39.61;99877.72;4485207;32;33911;-64
2021/07/21 05:08:38;;;;;;;11.07;7.07;;;;;;;28.29;39.64;99888.69;4485223;32;34053;-64
2021/07/21 05:11:07;;;;;;;9.20;6.62;;;;;;;28.29;39.60;99891.44;4485496;32;33296;-64
2021/07/21 05:13:40;;;;;;;10.45;7.03;;;;;;;28.29;39.43;99886.75;4485244;32;33711;-64
2021/07/21 05:16:08;;;;;;;14.52;7.72;;;;;;;28.27;39.65;99888.94;4485058;32;34622;-64
2021/07/21 05:18:37;;;;;;;13.70;7.85;;;;;;;28.26;39.63;99889.19;4485109;32;34110;-64
2021/07/21 05:21:06;;;;;;;11.18;7.22;;;;;;;28.26;39.72;99895.53;4484512;32;33251;-64
2021/07/21 05:23:34;;;;;;;12.68;7.05;;;;;;;28.28;39.73;99898.00;4485143;32;33956;-64
2021/07/21 05:26:02;;;;;;;18.52;7.18;;;;;;;28.26;39.56;99891.94;4483428;32;34845;-64
2021/07/21 05:28:30;;;;;;;14.82;7.45;;;;;;;28.26;39.83;99894.66;4485041;32;33858;-64
2021/07/21 05:30:58;;;;;;;11.75;7.03;;;;;;;28.27;39.62;99896.34;4485137;32;33571;-64
2021/07/21 05:33:27;;;;;;;13.05;6.85;;;;;;;28.27;39.77;99896.34;4484878;32;33955;-65
2021/07/21 05:35:55;;;;;;;13.10;6.93;;;;;;;28.27;39.70;99901.84;4485237;32;33723;-64
2021/07/21 05:38:23;;;;;;;10.30;7.22;;;;;;;28.26;39.69;99901.00;4483996;32;33833;-64
2021/07/21 05:40:51;;;;;;;13.20;6.75;;;;;;;28.25;39.78;99904.81;4484932;32;33489;-64
2021/07/21 05:43:19;;;;;;;9.95;6.90;;;;;;;28.26;39.87;99905.66;4485010;32;34627;-64
2021/07/21 05:45:46;;;;;;;10.48;7.15;;;;;;;28.25;39.92;99910.31;4483419;31;35154;-64
2021/07/21 05:48:15;;;;;;;11.30;6.85;;;;;;;28.26;39.94;99917.47;4479627;32;33734;-65
2021/07/21 05:50:44;;;;;;;12.32;7.10;;;;;;;28.26;39.73;99916.63;4485243;31;32007;-64
2021/07/21 05:53:12;;;;;;;9.20;6.57;;;;;;;28.25;39.75;99917.72;4485055;32;33864;-64
2021/07/21 05:55:40;;;;;;;9.32;6.53;;;;;;;28.26;39.81;99919.38;4484823;32;34798;-65
2021/07/21 05:58:10;;;;;;;12.20;7.03;;;;;;;28.26;39.89;99916.63;4484953;32;34008;-65
2021/07/21 06:00:38;;;;;;;9.30;6.87;;;;;;;28.26;39.94;99922.09;4484924;32;33761;-64
2021/07/21 06:03:07;;;;;;;10.15;7.00;;;;;;;28.26;39.83;99916.63;4484993;32;33476;-64
2021/07/21 06:05:38;;;;;;;9.85;6.53;;;;;;;28.26;39.82;99916.63;4484877;32;34861;-64
2021/07/21 06:08:06;;;;;;;9.68;6.30;;;;;;;28.25;39.72;99921.28;4484674;32;34879;-64
2021/07/21 06:10:36;;;;;;;12.77;7.15;;;;;;;28.25;39.74;99923.19;4484962;32;33094;-64
2021/07/21 06:13:04;;;;;;;10.80;7.32;;;;;;;28.26;39.77;99935.81;4484738;32;34926;-64
2021/07/21 06:15:32;;;;;;;10.75;6.28;;;;;;;28.25;39.83;99935.00;4484692;32;35061;-64
2021/07/21 06:18:00;;;;;;;10.32;6.72;;;;;;;28.25;39.78;99942.41;4484927;32;34112;-64
2021/07/21 06:20:28;;;;;;;12.25;6.82;;;;;;;28.23;39.83;99940.75;4484688;32;33157;-64
2021/07/21 06:22:57;;;;;;;11.63;6.85;;;;;;;28.26;39.87;99938.56;4484312;32;33477;-64
2021/07/21 06:25:24;;;;;;;12.35;7.07;;;;;;;28.26;39.96;99942.19;4484849;32;34895;-64
2021/07/21 06:27:54;;;;;;;;;;;;;;;28.25;39.87;99945.97;4485145;32;32505;-64
2021/07/21 06:30:23;;;;;;;11.82;6.55;;;;;;;28.37;39.75;99941.22;4484749;32;34249;-64
2021/07/21 06:32:51;;;;;;;10.30;6.90;;;;;;;28.28;39.93;99942.72;4484755;32;33910;-65
2021/07/21 06:35:19;;;;;;;10.85;6.37;;;;;;;28.26;39.99;99939.44;4484716;32;33802;-66
2021/07/21 06:37:47;;;;;;;15.75;7.28;;;;;;;28.25;40.04;99947.91;4484561;32;34302;-65
2021/07/21 06:40:14;;;;;;;13.40;7.05;;;;;;;28.25;40.03;99936.91;4483015;32;33055;-65
2021/07/21 06:42:42;;;;;;;10.95;6.57;;;;;;;28.25;40.15;99940.50;4484700;32;34696;-65
2021/07/21 06:45:10;;;;;;;14.63;6.62;;;;;;;28.26;40.01;99946.81;4484392;32;33737;-65
2021/07/21 06:47:39;;;;;;;12.60;6.72;;;;;;;28.25;40.12;99947.91;4484528;32;33653;-65
2021/07/21 06:50:07;;;;;;;11.75;6.55;;;;;;;28.26;40.20;99949.53;4484663;32;33733;-65
2021/07/21 06:52:35;;;;;;;9.90;6.95;;;;;;;28.25;40.16;99953.38;4484410;32;34374;-65
2021/07/21 06:55:04;;;;;;;9.93;6.35;;;;;;;28.25;40.18;99951.47;4484653;32;34831;-65
2021/07/21 06:57:34;;;;;;;10.73;6.12;;;;;;;28.25;40.24;99956.94;4484424;31;32693;-65
2021/07/21 07:00:05;;;;;;;11.00;5.95;;;;;;;28.27;40.25;99964.94;4484671;32;33970;-65
2021/07/21 07:02:34;;;;;;;10.80;6.68;;;;;;;28.26;40.33;99966.00;4470559;32;32560;-65
2021/07/21 07:05:06;;;;;;;10.77;6.65;;;;;;;28.26;40.11;99964.13;4483957;32;35029;-65
2021/07/21 07:07:39;;;;;;;14.68;6.57;;;;;;;28.26;40.25;99966.00;4484409;31;32394;-65
2021/07/21 07:10:15;;;;;;;18.30;6.53;;;;;;;28.26;40.23;99960.53;4484174;31;34312;-64
2021/07/21 07:12:43;;;;;;;14.55;7.07;;;;;;;28.27;40.09;99962.22;4484224;32;34769;-65
2021/07/21 07:15:11;;;;;;;15.50;6.97;;;;;;;28.26;40.15;99961.38;4483011;32;34200;-67
2021/07/21 07:17:38;;;;;;;13.65;6.37;;;;;;;28.27;40.15;99959.47;4484059;32;34562;-66
2021/07/21 07:20:06;;;;;;;9.93;6.05;;;;;;;28.28;40.00;99958.38;4484442;32;33428;-66
2021/07/21 07:22:34;;;;;;;12.70;6.22;;;;;;;28.27;40.09;99956.72;4483519;32;33959;-66
2021/07/21 07:25:02;;;;;;;12.37;6.70;;;;;;;28.26;39.95;99952.28;4483659;32;34021;-66
2021/07/21 07:27:29;;;;;;;9.45;6.10;;;;;;;28.27;39.98;99962.22;4480438;31;34137;-64
2021/07/21 07:29:57;;;;;;;15.32;6.68;;;;;;;28.28;40.06;99964.69;4499779;31;34247;-64
2021/07/21 07:32:25;;;;;;;10.48;6.40;;;;;;;28.29;40.12;99965.50;4489322;31;34666;-65
2021/07/21 07:34:52;;;;;;;13.45;6.22;;;;;;;28.31;40.16;99964.19;4483859;32;34654;-64
2021/07/21 07:37:20;;;;;;;14.82;5.87;;;;;;;28.31;40.20;99963.34;4483827;32;33972;-65
2021/07/21 07:39:47;;;;;;;9.85;6.20;;;;;;;28.33;40.23;99970.25;4483611;32;34261;-65
2021/07/21 07:42:15;;;;;;;11.60;6.15;;;;;;;28.34;40.28;99977.41;4483930;32;33881;-65
2021/07/21 07:44:44;;;;;;;13.55;6.22;;;;;;;28.35;40.33;99970.00;4482903;32;34088;-64
2021/07/21 07:47:11;;;;;;;10.73;6.15;;;;;;;28.37;40.34;99973.34;4482826;32;34746;-64
2021/07/21 07:49:39;;;;;;;9.98;6.20;;;;;;;28.38;40.35;99975.00;4483354;32;33622;-64
2021/07/21 07:52:07;;;;;;;12.60;6.00;;;;;;;28.38;40.40;99975.81;4483531;32;33959;-64
2021/07/21 07:54:35;;;;;;;13.38;6.18;;;;;;;28.39;40.44;99977.47;4483399;32;34620;-64
2021/07/21 07:57:03;;;;;;;13.23;6.22;;;;;;;28.41;40.49;99974.50;4482654;32;33934;-64
2021/07/21 07:59:30;;;;;;;9.25;6.40;;;;;;;28.43;40.53;99977.78;4483348;32;33572;-66
2021/07/21 08:01:58;;;;;;;15.55;6.37;;;;;;;28.43;40.61;99977.78;4483572;32;34023;-66
2021/07/21 08:04:26;;;;;;;13.07;6.20;;;;;;;28.43;40.61;99978.63;4482942;32;34918;-65
2021/07/21 08:06:53;;;;;;;10.10;5.87;;;;;;;28.44;40.59;99977.53;4482218;32;33950;-65
2021/07/21 08:09:22;;;;;;;12.52;6.03;;;;;;;28.44;40.60;99974.78;4483322;32;32802;-64
2021/07/21 08:11:52;;;;;;;12.75;6.10;;;;;;;28.45;40.58;99978.37;4478341;32;33906;-64
2021/07/21 08:14:20;;;;;;;10.32;5.50;;;;;;;28.45;40.47;99981.13;4493316;31;33632;-64
2021/07/21 08:16:48;;;;;;;16.10;5.55;;;;;;;28.44;40.51;99983.03;4498784;31;33724;-64
2021/07/21 08:19:16;;;;;;;10.93;5.45;;;;;;;28.44;40.54;99985.75;4483195;32;33651;-64
2021/07/21 08:21:44;;;;;;;10.00;5.22;;;;;;;28.44;40.52;99991.25;4481737;32;33876;-64
2021/07/21 08:24:12;;;;;;;10.35;5.68;;;;;;;28.45;40.49;99981.13;4483438;32;34104;-64
2021/07/21 08:26:40;;;;;;;8.80;5.53;;;;;;;28.45;40.51;99975.66;4483297;32;34109;-65
2021/07/21 08:29:08;;;;;;;8.35;5.65;;;;;;;28.44;40.45;99977.53;4482599;32;33503;-65
2021/07/21 08:31:35;;;;;;;12.90;5.95;;;;;;;28.44;40.45;99968.47;4483232;32;34009;-64
2021/07/21 08:34:05;;;;;;;9.43;5.90;;;;;;;28.46;40.44;99982.78;4482856;32;34041;-65
2021/07/21 08:36:34;;;;;;;9.25;5.70;;;;;;;28.45;40.45;99983.88;4481660;32;34077;-65
2021/07/21 08:39:02;;;;;;;10.82;5.78;;;;;;;28.45;40.45;99986.63;4482534;32;34332;-65
2021/07/21 08:41:29;;;;;;;9.20;5.30;;;;;;;28.45;40.44;99986.63;4482421;32;35289;-65
2021/07/21 08:43:57;;;;;;;12.20;5.82;;;;;;;28.44;40.46;99984.94;4468796;32;34811;-64
2021/07/21 08:46:24;;;;;;;12.25;5.85;;;;;;;28.44;40.47;99990.44;4468361;32;33975;-65
2021/07/21 08:48:54;;;;;;;;;;;;;;;28.44;40.47;99994.00;4481916;32;34272;-64
2021/07/21 08:51:23;;;;;;;10.55;5.62;;;;;;;28.55;40.25;99994.97;4482501;32;35301;-64
2021/07/21 08:53:52;;;;;;;10.88;5.95;;;;;;;28.46;40.43;99999.25;4482835;32;34082;-65
2021/07/21 08:56:20;;;;;;;9.50;5.80;;;;;;;28.44;40.49;99990.44;4482942;32;34724;-65
2021/07/21 08:58:48;;;;;;;7.93;5.25;;;;;;;28.43;40.51;100003.31;4484714;32;33917;-65
2021/07/21 09:01:16;;;;;;;9.88;5.68;;;;;;;28.43;40.53;100005.25;4483151;32;34048;-65
2021/07/21 09:03:45;;;;;;;8.33;5.87;;;;;;;28.42;40.54;99998.94;4484774;32;34083;-64
2021/07/21 09:06:25;;;;;;;7.57;5.32;;;;;;;28.43;40.54;100007.97;4483455;32;36320;-64
2021/07/21 09:08:53;;;;;;;9.23;5.45;;;;;;;28.42;40.56;99996.19;4484444;32;33480;-64
2021/07/21 09:11:20;;;;;;;7.93;5.35;;;;;;;28.42;40.57;100000.84;4484821;32;34217;-64
2021/07/21 09:13:48;;;;;;;9.30;5.22;;;;;;;28.42;40.58;99998.09;4483606;32;33356;-64
2021/07/21 09:16:16;;;;;;;8.60;5.10;;;;;;;28.41;40.59;100007.44;4484890;32;33895;-64
2021/07/21 09:18:50;;;;;;;8.43;5.05;;;;;;;28.41;40.61;99994.53;4483223;32;33509;-64
2021/07/21 09:21:20;;;;;;;9.57;5.70;;;;;;;28.41;40.62;100004.69;4484461;32;34083;-65
2021/07/21 09:23:52;;;;;;;8.00;5.90;;;;;;;28.41;40.63;99997.28;4484584;32;34803;-64
2021/07/21 09:26:41;;;;;;;7.05;4.87;;;;;;;28.42;40.63;100009.06;4484500;32;33478;-65
2021/07/21 09:29:08;;;;;;;9.45;5.45;;;;;;;28.44;40.59;100007.72;4484558;32;33584;-64
2021/07/21 09:31:38;;;;;;;9.13;5.50;;;;;;;28.43;40.61;99999.75;4484333;32;34280;-64
2021/07/21 09:34:16;;;;;;;6.72;5.00;;;;;;;28.41;40.65;100001.94;4483488;32;33940;-64
2021/07/21 09:36:47;;;;;;;7.90;5.57;;;;;;;28.43;40.66;99997.00;4483048;32;34208;-64
2021/07/21 09:39:15;;;;;;;7.57;5.10;;;;;;;28.41;40.67;100010.16;4484522;32;33648;-64
2021/07/21 09:41:50;;;;;;;8.50;5.15;;;;;;;28.41;40.68;100008.25;4484113;32;34153;-64
2021/07/21 09:44:18;;;;;;;8.82;5.30;;;;;;;28.40;40.70;100014.84;4484332;32;34877;-64
2021/07/21 09:46:46;;;;;;;7.62;5.53;;;;;;;28.40;40.74;100005.78;4483348;31;33791;-64
2021/07/21 09:49:19;;;;;;;6.97;5.25;;;;;;;28.40;40.75;100008.53;4484348;32;34224;-64
2021/07/21 09:51:47;;;;;;;8.75;5.37;;;;;;;28.40;40.74;100008.53;4470130;32;33952;-64
2021/07/21 09:54:18;;;;;;;14.13;5.07;;;;;;;28.40;40.76;100003.84;4484481;32;34263;-65
2021/07/21 09:56:50;;;;;;;10.18;4.90;;;;;;;28.39;40.77;100002.16;4484495;32;33868;-64
2021/07/21 09:59:29;;;;;;;8.35;5.30;;;;;;;28.39;40.76;100007.66;4484540;32;33409;-64
2021/07/21 10:01:56;;;;;;;7.55;5.35;;;;;;;28.41;40.75;100001.94;4483920;32;33253;-64
2021/07/21 10:04:32;;;;;;;8.45;5.00;;;;;;;28.40;40.75;100003.03;4484404;32;34833;-64
2021/07/21 10:07:04;;;;;;;7.78;5.15;;;;;;;28.40;40.78;100006.59;4484113;32;33708;-64
2021/07/21 10:09:32;;;;;;;8.02;4.75;;;;;;;28.40;40.79;100006.59;4483259;32;33519;-65
2021/07/21 10:12:00;;;;;;;7.70;5.03;;;;;;;28.40;40.80;100000.28;4484009;32;33923;-64
2021/07/21 10:14:27;;;;;;;8.77;5.75;;;;;;;28.40;40.80;100003.03;4484116;32;34057;-64
2021/07/21 10:16:55;;;;;;;9.00;5.50;;;;;;;28.40;40.82;100003.03;4484098;32;34009;-64
2021/07/21 10:19:28;;;;;;;8.90;5.20;;;;;;;28.41;40.83;100001.94;4484623;32;33427;-64
2021/07/21 10:22:00;;;;;;;7.47;4.85;;;;;;;28.38;40.85;99997.78;4483894;32;34103;-64
2021/07/21 10:24:32;;;;;;;6.95;4.97;;;;;;;28.39;40.86;100002.16;4484359;32;35089;-65
2021/07/21 10:27:00;;;;;;;6.50;5.05;;;;;;;28.38;40.88;99995.03;4483878;32;33941;-65
2021/07/21 10:29:28;;;;;;;7.90;4.82;;;;;;;28.39;40.88;100010.41;4484125;31;34136;-64
2021/07/21 10:31:55;;;;;;;7.80;5.20;;;;;;;28.40;40.90;100011.25;4484135;31;34018;-64
2021/07/21 10:34:23;;;;;;;8.15;4.95;;;;;;;28.39;40.90;100009.56;4483934;31;34053;-65
2021/07/21 10:36:51;;;;;;;6.87;4.72;;;;;;;28.40;40.92;100005.78;4478019;31;34582;-64
2021/07/21 10:39:23;;;;;;;8.93;4.95;;;;;;;28.40;40.93;100008.53;4482611;32;33474;-64
2021/07/21 10:41:51;;;;;;;7.28;4.82;;;;;;;28.40;40.94;100005.78;4469849;32;33991;-64
2021/07/21 10:44:18;;;;;;;8.70;5.20;;;;;;;28.39;40.94;100002.16;4480063;32;33982;-65
2021/07/21 10:46:53;;;;;;;7.80;5.00;;;;;;;28.39;40.95;100004.91;4480331;31;33844;-64
2021/07/21 10:49:50;;;;;;;7.68;5.22;;;;;;;28.41;40.96;100010.16;4484066;32;33187;-64
2021/07/21 11:00:19;;;;;;;8.60;4.57;;;;;;;28.39;41.02;99999.44;4481497;32;33296;-65
2021/07/21 11:02:48;;;;;;;8.68;5.20;;;;;;;28.38;41.04;99991.47;4466821;32;34772;-64
2021/07/21 11:05:35;;;;;;;7.93;4.87;;;;;;;28.38;41.05;100000.53;4479174;32;34827;-64
2021/07/21 11:08:04;;;;;;;6.68;4.43;;;;;;;28.42;41.00;100001.66;4463673;32;34819;-64
2021/07/21 11:10:39;;;;;;;8.13;4.75;;;;;;;28.38;41.08;99994.19;4487864;31;34524;-64
2021/07/21 11:13:13;;;;;;;7.47;4.90;;;;;;;28.39;41.07;99998.59;4483796;31;33955;-65
2021/07/21 11:15:45;;;;;;;7.75;5.10;;;;;;;28.39;41.12;99990.38;4483615;31;33807;-65
2021/07/21 11:18:24;;;;;;;6.57;4.57;;;;;;;28.38;41.10;99991.47;4476573;31;34694;-64
2021/07/21 11:21:20;;;;;;;7.03;4.95;;;;;;;28.39;41.11;99987.63;4483331;31;34135;-65
2021/07/21 11:23:51;;;;;;;8.48;4.75;;;;;;;28.39;41.11;99985.69;4484185;31;33241;-65
2021/07/21 11:26:39;;;;;;;7.10;4.62;;;;;;;28.37;41.15;99996.13;4478485;31;33624;-65
2021/07/21 11:29:33;;;;;;;7.30;4.78;;;;;;;28.40;41.12;99987.38;4483846;31;33588;-65
2021/07/21 11:32:01;;;;;;;5.68;4.10;;;;;;;28.41;41.12;99985.47;4484045;31;33301;-65
2021/07/21 11:34:33;;;;;;;5.95;4.28;;;;;;;28.37;41.19;99981.56;4483702;31;34776;-65
2021/07/21 11:37:07;;;;;;;7.35;4.90;;;;;;;28.36;41.22;99978.00;4483780;31;35069;-64
2021/07/21 11:39:44;;;;;;;6.97;4.70;;;;;;;28.36;41.22;99982.66;4483686;31;33902;-64
2021/07/21 11:42:27;;;;;;;7.20;4.95;;;;;;;28.37;41.21;99982.41;4478319;32;33333;-65
2021/07/21 11:45:04;;;;;;;7.10;5.07;;;;;;;28.38;41.20;99978.56;4483804;32;34666;-65
2021/07/21 11:47:35;;;;;;;6.12;4.40;;;;;;;28.38;41.23;99983.22;4483514;31;34200;-65
2021/07/21 11:50:16;;;;;;;7.10;4.70;;;;;;;28.37;41.28;99989.81;4483848;32;34090;-66
2021/07/21 11:52:49;;;;;;;7.62;4.65;;;;;;;28.37;41.27;99984.31;4483782;31;33640;-64
2021/07/21 11:55:16;;;;;;;8.65;5.00;;;;;;;28.36;41.28;99978.00;4483493;32;33921;-65